Time;durP1;ratioP1;P1;durP2;ratioP2;P2;SDS_P1;SDS_P2;PMS_P1;PMS_P2;Temp;Humidity;BMP_temperature;BMP_pressure;BME280_temperature;BME280_humidity;BME280_pressure;Samples;Min_cycle;Max_cycle;Signal;HPM_P1;HPM_P2
2022/09/03 00:00:01;;;;;;;6.00;2.15;;;;;;;26.34;35.25;101604.79;1430461;100;21146;-54
2022/09/03 00:02:44;;;;;;;6.58;2.25;;;;;;;26.31;35.21;101597.50;1462243;97;21124;-54
2022/09/03 00:05:39;;;;;;;8.23;2.00;;;;;;;26.30;35.41;101605.12;1470152;98;21077;-55
2022/09/03 00:08:24;;;;;;;5.60;1.82;;;;;;;26.30;35.39;101611.80;1463591;98;21630;-54
2022/09/03 00:11:02;;;;;;;7.47;2.30;;;;;;;26.28;34.96;101609.25;1470016;96;21096;-55
2022/09/03 00:13:50;;;;;;;9.75;2.58;;;;;;;26.27;35.35;101593.36;1470196;98;21165;-54
2022/09/03 00:16:20;;;;;;;5.97;2.12;;;;;;;26.25;35.76;101596.63;1461965;98;21128;-58
2022/09/03 00:18:58;;;;;;;5.42;1.92;;;;;;;26.22;35.20;101601.70;1469949;98;21647;-57
2022/09/03 00:21:43;;;;;;;3.60;1.95;;;;;;;26.21;34.83;101599.15;1470140;98;21142;-54
2022/09/03 00:24:12;;;;;;;8.83;2.10;;;;;;;26.19;34.71;101595.74;1471241;97;21077;-54
2022/09/03 00:26:42;;;;;;;9.88;2.08;;;;;;;26.18;35.41;101599.36;1470282;97;21849;-56
2022/09/03 00:29:17;;;;;;;13.15;3.12;;;;;;;26.17;35.83;101588.34;1470995;97;21549;-60
2022/09/03 00:31:50;;;;;;;6.50;2.40;;;;;;;26.14;36.11;101584.55;1467482;97;21109;-59
2022/09/03 00:34:29;;;;;;;5.08;2.00;;;;;;;26.14;36.13;101573.40;1395257;102;21134;-61
2022/09/03 00:36:56;;;;;;;3.70;1.77;;;;;;;26.12;36.22;101584.67;1392603;102;21617;-54
2022/09/03 00:39:25;;;;;;;2.00;1.72;;;;;;;26.12;35.72;101578.00;1398366;102;21630;-54
2022/09/03 00:42:37;;;;;;;3.65;2.00;;;;;;;26.09;35.26;101582.20;1399992;102;21156;-59
2022/09/03 00:45:37;;;;;;;3.30;1.72;;;;;;;26.09;35.18;101594.72;1429784;97;21189;-53
2022/09/03 00:48:28;;;;;;;6.50;1.85;;;;;;;26.08;35.54;101588.52;1485199;96;21085;-54
2022/09/03 00:51:29;;;;;;;7.00;2.25;;;;;;;26.06;36.22;101597.56;1447172;99;21137;-55
2022/09/03 00:54:09;;;;;;;10.43;2.92;;;;;;;26.06;36.15;101610.90;1449653;99;21132;-55
2022/09/03 00:56:50;;;;;;;5.37;1.98;;;;;;;26.06;36.37;101625.56;1486862;96;21159;-54
2022/09/03 00:59:56;;;;;;;6.60;1.95;;;;;;;26.05;36.15;101614.55;1449790;99;21065;-54
2022/09/03 01:03:09;;;;;;;5.65;1.87;;;;;;;26.04;35.81;101615.49;1460814;97;21166;-55
2022/09/03 01:06:02;;;;;;;3.00;1.80;;;;;;;26.02;35.38;101609.42;1463095;97;21611;-54
2022/09/03 01:08:46;;;;;;;4.10;2.15;;;;;;;26.00;35.51;101606.02;1457282;97;21163;-55
2022/09/03 01:11:39;;;;;;;7.05;2.50;;;;;;;25.99;35.36;101614.99;1459023;97;21146;-57
2022/09/03 01:14:23;;;;;;;5.33;2.30;;;;;;;25.97;36.23;101612.41;1462592;97;21076;-54
2022/09/03 01:17:19;;;;;;;6.37;2.60;;;;;;;25.97;36.13;101611.55;1459362;98;21164;-60
2022/09/03 01:20:05;;;;;;;4.55;1.77;;;;;;;25.96;36.10;101611.20;1462007;98;21158;-54
2022/09/03 01:23:13;;;;;;;7.17;2.00;;;;;;;25.95;35.64;101613.48;1450924;98;21660;-56
2022/09/03 01:26:25;;;;;;;5.62;1.75;;;;;;;25.94;35.45;101602.45;1452024;98;22462;-60
2022/09/03 01:29:13;;;;;;;7.08;2.08;;;;;;;25.93;35.32;101596.73;1405989;101;21141;-56
2022/09/03 01:32:14;;;;;;;9.83;2.25;;;;;;;25.92;35.48;101592.38;1394070;101;21187;-59
2022/09/03 01:34:54;;;;;;;;;;;;;;;25.90;35.59;101599.64;1406268;102;21137;-57
2022/09/03 01:37:41;;;;;;;4.65;2.05;;;;;;;25.88;35.73;101606.42;1410063;100;20143;-54
2022/09/03 01:40:19;;;;;;;7.37;2.47;;;;;;;25.87;35.84;101608.70;1440091;98;21158;-58
2022/09/03 01:43:13;;;;;;;5.67;1.92;;;;;;;25.86;36.19;101614.16;1442321;98;21133;-54
2022/09/03 01:45:49;;;;;;;2.98;1.72;;;;;;;25.94;35.88;101623.31;1439927;98;21152;-55
2022/09/03 01:48:50;;;;;;;7.85;3.08;;;;;;;25.93;35.55;101618.07;1447485;98;21157;-54
2022/09/03 01:51:24;;;;;;;5.35;1.52;;;;;;;25.95;36.08;101625.48;1438422;98;21653;-59
2022/09/03 01:54:27;;;;;;;5.12;2.30;;;;;;;25.94;35.87;101627.31;1367470;103;21230;-57
2022/09/03 01:57:21;;;;;;;6.45;2.02;;;;;;;25.91;35.69;101622.66;1320800;108;21207;-54
2022/09/03 01:59:57;;;;;;;8.80;2.60;;;;;;;25.87;35.48;101630.04;1303802;109;21189;-55
2022/09/03 02:02:26;;;;;;;5.97;1.67;;;;;;;25.89;36.07;101627.25;1288614;109;21702;-54
2022/09/03 02:05:07;;;;;;;8.78;2.02;;;;;;;25.90;35.93;101636.97;1310989;109;21188;-57
2022/09/03 02:07:46;;;;;;;6.78;2.17;;;;;;;25.93;35.73;101639.41;1307996;108;21220;-54
2022/09/03 02:10:19;;;;;;;3.10;1.98;;;;;;;25.91;35.60;101643.52;1355369;104;21155;-54
2022/09/03 02:12:51;;;;;;;6.20;2.10;;;;;;;25.90;35.59;101642.30;1361354;102;21128;-56
2022/09/03 02:15:21;;;;;;;6.85;2.25;;;;;;;25.89;35.53;101644.11;1366057;104;21132;-59
2022/09/03 02:17:48;;;;;;;7.08;2.37;;;;;;;25.90;35.69;101644.98;1384579;104;21119;-54
2022/09/03 02:20:19;;;;;;;3.52;1.32;;;;;;;25.86;35.94;101640.83;1373315;103;21201;-54
2022/09/03 02:22:47;;;;;;;3.30;1.63;;;;;;;25.86;35.41;101648.82;1385763;102;21432;-54
2022/09/03 02:25:17;;;;;;;5.60;1.92;;;;;;;25.84;35.46;101644.44;1373317;103;21158;-54
2022/09/03 02:27:44;;;;;;;10.15;2.37;;;;;;;25.81;35.69;101638.00;1366537;104;21221;-56
2022/09/03 02:30:11;;;;;;;5.33;1.90;;;;;;;25.80;36.22;101643.45;1369500;101;21698;-54
2022/09/03 02:32:38;;;;;;;6.90;1.87;;;;;;;25.78;35.83;101642.20;1440923;98;21138;-54
2022/09/03 02:35:07;;;;;;;6.35;2.00;;;;;;;25.79;36.15;101635.93;1458246;98;21116;-54
2022/09/03 02:37:34;;;;;;;6.55;2.12;;;;;;;25.77;36.42;101636.52;1434809;98;21093;-55
2022/09/03 02:40:07;;;;;;;5.67;2.70;;;;;;;25.75;37.17;101639.78;1448981;97;21608;-54
2022/09/03 02:42:32;;;;;;;8.38;2.67;;;;;;;25.73;37.34;101644.37;1496387;94;21097;-54
2022/09/03 02:45:21;;;;;;;5.10;2.47;;;;;;;25.71;37.47;101637.43;1495174;94;21057;-60
2022/09/03 02:47:51;;;;;;;9.30;2.70;;;;;;;25.69;37.46;101644.22;1505442;94;21101;-56
2022/09/03 02:50:17;;;;;;;9.55;3.20;;;;;;;25.67;37.37;101635.47;1519617;91;21082;-56
2022/09/03 02:52:44;;;;;;;10.70;2.65;;;;;;;25.66;37.96;101624.42;1545233;92;21235;-55
2022/09/03 02:55:11;;;;;;;7.37;2.15;;;;;;;25.64;37.86;101632.15;1544723;91;21097;-54
2022/09/03 02:57:38;;;;;;;6.33;1.90;;;;;;;25.62;37.59;101636.73;1544695;91;21121;-56
2022/09/03 03:00:07;;;;;;;8.20;2.30;;;;;;;25.58;37.44;101645.44;1544822;91;21569;-54
2022/09/03 03:02:34;;;;;;;3.62;1.70;;;;;;;25.57;37.69;101637.09;1544975;91;21128;-56
2022/09/03 03:05:01;;;;;;;6.53;2.85;;;;;;;25.56;37.90;101634.03;1544892;93;21141;-54
2022/09/03 03:07:31;;;;;;;4.70;2.05;;;;;;;25.56;38.07;101635.84;1544890;91;21073;-56
2022/09/03 03:09:58;;;;;;;6.05;2.47;;;;;;;25.54;37.69;101627.95;1545018;91;21116;-56
2022/09/03 03:12:25;;;;;;;9.08;2.40;;;;;;;25.54;37.74;101622.63;1544855;91;21129;-55
2022/09/03 03:14:52;;;;;;;4.83;1.98;;;;;;;25.55;38.12;101631.48;1544908;91;21159;-56
2022/09/03 03:17:18;;;;;;;5.17;1.80;;;;;;;25.53;37.85;101630.23;1545151;93;21190;-54
2022/09/03 03:19:45;;;;;;;3.83;1.80;;;;;;;25.54;37.63;101631.95;1545018;91;21125;-55
2022/09/03 03:22:11;;;;;;;5.78;1.70;;;;;;;25.53;37.64;101636.89;1544738;91;21045;-54
2022/09/03 03:24:38;;;;;;;7.05;2.15;;;;;;;25.53;38.05;101614.75;1582697;87;21078;-54
2022/09/03 03:27:07;;;;;;;5.45;1.95;;;;;;;25.53;38.05;101614.75;1609206;87;21070;-54
2022/09/03 03:29:34;;;;;;;5.58;2.40;;;;;;;25.54;38.17;101613.77;1591730;90;21121;-57
2022/09/03 03:32:02;;;;;;;4.60;1.85;;;;;;;25.52;38.24;101611.22;1620397;87;21109;-60
2022/09/03 03:34:29;;;;;;;8.70;2.72;;;;;;;25.51;38.25;101620.16;1583239;90;21027;-57
2022/09/03 03:36:56;;;;;;;4.75;2.12;;;;;;;25.50;38.58;101626.47;1640872;86;21446;-54
2022/09/03 03:39:23;;;;;;;8.23;2.10;;;;;;;25.49;38.21;101627.41;1640916;86;21034;-56
2022/09/03 03:41:51;;;;;;;7.95;2.02;;;;;;;25.49;38.40;101621.25;1641094;86;21466;-53
2022/09/03 03:44:19;;;;;;;3.17;1.75;;;;;;;25.47;38.57;101616.52;1641242;86;21041;-56
2022/09/03 03:46:46;;;;;;;6.28;2.35;;;;;;;25.46;38.15;101619.65;1640942;86;21081;-53
2022/09/03 03:49:12;;;;;;;9.73;2.30;;;;;;;25.44;38.09;101608.25;1640871;86;20995;-54
2022/09/03 03:51:39;;;;;;;5.75;2.40;;;;;;;25.43;38.07;101598.53;1641259;86;20994;-54
2022/09/03 03:54:06;;;;;;;4.70;2.27;;;;;;;25.45;37.85;101597.95;1641032;86;21066;-54
2022/09/03 03:56:34;;;;;;;7.40;1.85;;;;;;;25.44;37.93;101600.25;1641195;87;21050;-55
2022/09/03 03:59:01;;;;;;;9.30;2.70;;;;;;;25.43;38.71;101601.20;1640961;86;21006;-55
2022/09/03 04:01:28;;;;;;;7.17;2.25;;;;;;;25.43;38.50;101603.86;1641055;86;21029;-56
2022/09/03 04:03:57;;;;;;;5.37;2.20;;;;;;;25.45;38.27;101605.94;1641019;86;21030;-54
2022/09/03 04:06:23;;;;;;;6.22;2.37;;;;;;;25.45;38.30;101607.77;1641181;86;21585;-55
2022/09/03 04:08:51;;;;;;;5.53;2.15;;;;;;;25.47;38.62;101617.34;1641181;86;21070;-60
2022/09/03 04:11:20;;;;;;;5.08;2.02;;;;;;;25.50;38.63;101606.95;1640944;86;21061;-54
2022/09/03 04:13:48;;;;;;;3.23;1.87;;;;;;;25.49;37.85;101627.41;1635811;86;21537;-53
2022/09/03 04:16:21;;;;;;;5.70;1.85;;;;;;;25.49;38.11;101622.08;1641133;86;21044;-57
2022/09/03 04:18:48;;;;;;;5.95;2.37;;;;;;;25.50;38.34;101629.13;1637830;87;21525;-56
2022/09/03 04:21:21;;;;;;;2.75;1.82;;;;;;;25.51;38.30;101621.49;1641077;86;21072;-56
2022/09/03 04:23:49;;;;;;;4.37;2.40;;;;;;;25.52;38.54;101619.69;1641234;86;21027;-56
2022/09/03 04:26:20;;;;;;;4.80;2.00;;;;;;;25.50;38.85;101611.81;1640920;86;21025;-55
2022/09/03 04:28:47;;;;;;;5.08;2.35;;;;;;;25.50;38.55;101611.81;1592011;89;21581;-57
2022/09/03 04:31:16;;;;;;;6.55;2.10;;;;;;;25.49;38.86;101608.76;1592200;89;21054;-57
2022/09/03 04:33:42;;;;;;;2.95;1.82;;;;;;;25.49;39.04;101602.09;1591472;88;21564;-56
2022/09/03 04:36:15;;;;;;;7.08;2.60;;;;;;;25.47;38.65;101609.34;1591279;88;21016;-54
2022/09/03 04:38:45;;;;;;;3.50;2.10;;;;;;;25.47;38.79;101597.36;1591222;88;21036;-58
2022/09/03 04:41:18;;;;;;;6.08;2.00;;;;;;;25.48;38.62;101599.08;1591642;90;21524;-54
2022/09/03 04:43:45;;;;;;;3.37;2.10;;;;;;;25.48;38.56;101597.74;1591470;88;21067;-56
2022/09/03 04:46:12;;;;;;;6.08;2.08;;;;;;;25.51;38.63;101601.51;1591625;88;21016;-55
2022/09/03 04:48:39;;;;;;;4.33;2.08;;;;;;;25.52;38.69;101599.23;1591140;88;21090;-54
2022/09/03 04:51:09;;;;;;;6.78;2.25;;;;;;;25.53;38.77;101594.25;1591054;87;21057;-57
2022/09/03 04:53:42;;;;;;;7.83;2.15;;;;;;;25.54;38.71;101592.45;1591527;88;21170;-61
2022/09/03 04:56:17;;;;;;;4.40;2.25;;;;;;;25.56;38.91;101588.72;1591287;88;21047;-54
2022/09/03 04:58:44;;;;;;;4.72;1.92;;;;;;;25.58;38.95;101587.27;1514999;94;21212;-55
2022/09/03 05:01:17;;;;;;;4.42;1.90;;;;;;;25.60;39.24;101594.68;1516849;93;21193;-54
2022/09/03 05:03:44;;;;;;;13.85;2.45;;;;;;;25.61;39.14;101577.27;1517025;93;21062;-54
2022/09/03 05:06:12;;;;;;;4.95;2.10;;;;;;;25.60;39.20;101575.55;1516945;93;21131;-55
2022/09/03 05:08:39;;;;;;;4.75;2.30;;;;;;;25.62;39.12;101570.96;1517165;93;21071;-54
2022/09/03 05:11:06;;;;;;;4.37;2.25;;;;;;;25.61;38.95;101558.61;1516902;93;21123;-54
2022/09/03 05:13:34;;;;;;;5.72;2.25;;;;;;;25.64;39.08;101564.17;1517037;93;21094;-60
2022/09/03 05:16:05;;;;;;;7.03;2.33;;;;;;;25.64;39.08;101573.03;1517280;93;21073;-59
2022/09/03 05:18:36;;;;;;;;;;;;;;;25.63;39.02;101572.68;1519342;93;21136;-57
2022/09/03 05:21:08;;;;;;;5.50;2.40;;;;;;;25.62;38.70;101572.29;1517026;93;20163;-56
2022/09/03 05:23:37;;;;;;;8.75;3.65;;;;;;;25.61;38.58;101573.27;1516860;93;21142;-54
2022/09/03 05:26:09;;;;;;;10.38;3.85;;;;;;;25.62;39.11;101574.95;1524431;92;21138;-55
2022/09/03 05:28:40;;;;;;;8.95;3.95;;;;;;;25.62;38.79;101572.29;1533046;92;21208;-56
2022/09/03 05:31:11;;;;;;;17.30;4.28;;;;;;;25.62;39.11;101577.62;1537732;92;21071;-53
2022/09/03 05:33:41;;;;;;;10.18;4.42;;;;;;;25.64;39.09;101577.03;1537310;91;21174;-56
2022/09/03 05:36:11;;;;;;;7.67;3.85;;;;;;;25.66;39.04;101581.77;1515857;95;21157;-57
2022/09/03 05:38:38;;;;;;;13.22;4.20;;;;;;;25.67;39.08;101576.83;1515837;93;21089;-54
2022/09/03 05:41:07;;;;;;;7.03;3.47;;;;;;;25.68;39.16;101577.18;1539541;92;21079;-55
2022/09/03 05:43:34;;;;;;;7.40;3.90;;;;;;;25.69;39.16;101574.91;1515712;95;21121;-55
2022/09/03 05:46:07;;;;;;;5.60;3.58;;;;;;;25.71;39.07;101586.31;1515649;93;21085;-54
2022/09/03 05:48:36;;;;;;;12.10;3.98;;;;;;;25.70;39.15;101588.59;1515849;93;21069;-56
2022/09/03 05:51:06;;;;;;;7.58;3.67;;;;;;;25.71;39.49;101590.31;1515834;93;21169;-54
2022/09/03 05:53:36;;;;;;;9.50;3.92;;;;;;;25.71;39.42;101587.64;1539772;92;21100;-53
2022/09/03 05:56:09;;;;;;;6.72;3.83;;;;;;;25.73;38.83;101589.72;1603586;87;21056;-56
2022/09/03 06:01:16;;;;;;;7.00;3.42;;;;;;;25.75;39.22;101590.45;1567017;90;21131;-62
2022/09/03 06:03:44;;;;;;;10.03;4.65;;;;;;;25.77;39.42;101588.53;1575163;90;21045;-55
2022/09/03 06:06:12;;;;;;;9.45;3.90;;;;;;;25.77;39.30;101587.20;1541979;92;21076;-61
2022/09/03 06:08:40;;;;;;;8.78;4.12;;;;;;;25.79;39.31;101590.61;1566939;90;21637;-54
2022/09/03 06:11:07;;;;;;;9.60;3.55;;;;;;;25.80;39.19;101588.30;1575336;90;21092;-55
2022/09/03 06:13:34;;;;;;;7.72;3.40;;;;;;;25.81;39.31;101594.02;1541776;92;21186;-55
2022/09/03 06:16:05;;;;;;;7.50;3.50;;;;;;;25.80;39.42;101592.30;1566965;90;21092;-55
2022/09/03 06:18:33;;;;;;;6.42;3.50;;;;;;;25.80;39.53;101601.62;1573941;90;21565;-59
2022/09/03 06:21:03;;;;;;;10.90;3.55;;;;;;;25.81;39.62;101608.67;1542094;92;21051;-54
2022/09/03 06:23:31;;;;;;;6.72;3.10;;;;;;;25.80;39.53;101608.29;1546520;91;21146;-54
2022/09/03 06:26:11;;;;;;;5.28;3.20;;;;;;;25.80;39.49;101609.63;1522459;93;21099;-54
2022/09/03 06:28:42;;;;;;;4.78;2.92;;;;;;;25.77;39.28;101612.52;1546858;91;21088;-54
2022/09/03 06:31:11;;;;;;;8.18;3.35;;;;;;;25.76;39.34;101617.47;1542011;93;21702;-54
2022/09/03 06:33:39;;;;;;;8.43;3.95;;;;;;;25.78;39.52;101609.39;1543633;93;21101;-53
2022/09/03 06:36:08;;;;;;;6.05;3.35;;;;;;;25.77;39.17;101619.19;1539067;92;21655;-53
2022/09/03 06:38:37;;;;;;;9.00;3.80;;;;;;;25.77;38.96;101621.86;1545274;92;21038;-53
2022/09/03 06:41:07;;;;;;;6.72;3.10;;;;;;;25.76;38.94;101617.47;1544932;92;21126;-57
2022/09/03 06:43:36;;;;;;;7.53;3.87;;;;;;;25.76;39.05;101614.80;1546153;92;21144;-60
2022/09/03 06:46:06;;;;;;;7.20;3.90;;;;;;;25.77;39.20;101621.86;1539075;92;21100;-54
2022/09/03 06:48:34;;;;;;;7.92;3.80;;;;;;;25.78;39.08;101615.55;1544128;92;21087;-54
2022/09/03 06:51:06;;;;;;;8.73;3.65;;;;;;;25.78;38.96;101615.55;1539238;92;21615;-61
2022/09/03 06:53:35;;;;;;;10.63;4.30;;;;;;;25.78;38.82;101618.22;1539050;93;21684;-55
2022/09/03 06:56:08;;;;;;;9.28;3.87;;;;;;;25.76;39.08;101625.47;1537887;93;21035;-54
2022/09/03 06:58:41;;;;;;;6.28;3.35;;;;;;;25.78;39.32;101630.21;1577487;90;21050;-54
2022/09/03 07:01:16;;;;;;;7.03;3.30;;;;;;;25.79;39.14;101630.59;1545985;91;21785;-53
2022/09/03 07:03:45;;;;;;;5.90;2.92;;;;;;;25.78;39.02;101636.87;1545800;91;21146;-55
2022/09/03 07:06:15;;;;;;;6.00;3.17;;;;;;;25.77;39.02;101635.19;1545838;91;21116;-54
2022/09/03 07:08:43;;;;;;;6.72;2.62;;;;;;;25.76;38.98;101626.80;1545180;91;21080;-56
2022/09/03 07:11:13;;;;;;;5.28;2.65;;;;;;;25.76;39.04;101626.80;1545136;91;21592;-54
2022/09/03 07:13:45;;;;;;;7.28;2.60;;;;;;;25.75;38.95;101618.45;1520750;93;21088;-55
2022/09/03 07:16:19;;;;;;;5.78;2.37;;;;;;;25.75;38.86;101614.45;1520863;93;21636;-58
2022/09/03 07:18:48;;;;;;;5.92;2.58;;;;;;;25.76;38.78;101620.14;1467228;96;21095;-55
2022/09/03 07:21:18;;;;;;;4.75;2.70;;;;;;;25.77;38.72;101623.66;1469549;96;21597;-55
2022/09/03 07:23:46;;;;;;;5.53;2.30;;;;;;;25.79;38.38;101616.41;1469840;96;21052;-55
2022/09/03 07:26:16;;;;;;;8.20;2.30;;;;;;;25.81;38.43;101630.01;1470185;96;21139;-56
2022/09/03 07:28:44;;;;;;;9.20;3.50;;;;;;;25.84;38.39;101624.44;1471964;96;21128;-56
2022/09/03 07:31:18;;;;;;;7.70;2.70;;;;;;;25.89;38.24;101612.59;1471946;97;21077;-58
2022/09/03 07:33:46;;;;;;;5.25;2.17;;;;;;;25.94;38.20;101614.45;1459220;97;21677;-54
2022/09/03 07:36:15;;;;;;;7.15;2.33;;;;;;;25.97;37.95;101607.55;1457058;97;21094;-53
2022/09/03 07:38:43;;;;;;;5.30;2.05;;;;;;;26.02;37.48;101602.75;1446400;97;21075;-56
2022/09/03 07:41:11;;;;;;;4.62;2.15;;;;;;;26.05;37.33;101601.20;1446687;98;21635;-54
2022/09/03 07:43:44;;;;;;;5.00;1.92;;;;;;;26.07;37.05;101595.28;1443889;98;21102;-55
2022/09/03 07:46:14;;;;;;;6.62;2.33;;;;;;;26.10;36.99;101600.41;1445954;98;21638;-54
2022/09/03 07:48:42;;;;;;;4.55;2.33;;;;;;;26.12;37.01;101603.34;1427650;100;21157;-53
2022/09/03 07:51:08;;;;;;;4.42;2.47;;;;;;;26.15;36.53;101600.43;1432850;100;21150;-54
2022/09/03 07:53:35;;;;;;;6.65;2.58;;;;;;;26.16;36.15;101601.29;1429936;99;21171;-56
2022/09/03 07:56:07;;;;;;;4.47;1.95;;;;;;;26.16;36.08;101593.28;1429140;100;21110;-57
2022/09/03 07:58:35;;;;;;;3.27;2.08;;;;;;;26.17;36.10;101592.34;1413750;100;21176;-55
2022/09/03 08:01:10;;;;;;;5.55;2.33;;;;;;;26.19;36.08;101581.07;1408911;101;21166;-56
2022/09/03 08:03:44;;;;;;;5.42;2.10;;;;;;;26.22;36.24;101579.49;1360528;104;21196;-57
2022/09/03 08:06:11;;;;;;;8.03;2.25;;;;;;;26.25;36.27;101572.14;1361326;105;21654;-54
2022/09/03 08:08:39;;;;;;;4.30;1.87;;;;;;;26.30;35.81;101570.44;1362204;105;21139;-54
2022/09/03 08:11:14;;;;;;;10.45;2.12;;;;;;;26.32;35.77;101572.50;1354573;105;21726;-61
2022/09/03 08:13:45;;;;;;;4.47;1.77;;;;;;;26.33;35.54;101566.22;1332901;106;21167;-55
2022/09/03 08:16:14;;;;;;;7.58;2.47;;;;;;;26.33;35.34;101566.22;1315351;109;21145;-55
2022/09/03 08:18:41;;;;;;;6.60;2.05;;;;;;;26.33;35.39;101559.55;1328396;108;21312;-54
2022/09/03 08:21:12;;;;;;;3.22;2.05;;;;;;;26.32;35.42;101541.82;1336721;107;21660;-54
2022/09/03 08:23:43;;;;;;;2.25;1.65;;;;;;;26.32;35.04;101541.34;1328228;108;21240;-55
2022/09/03 08:26:10;;;;;;;6.20;2.60;;;;;;;26.30;35.16;101538.42;1328261;108;21172;-56
2022/09/03 08:28:37;;;;;;;5.15;2.47;;;;;;;26.30;35.21;101537.94;1336898;107;21686;-54
2022/09/03 08:31:13;;;;;;;5.37;2.25;;;;;;;26.30;34.97;101535.75;1340486;107;21151;-56
2022/09/03 08:33:44;;;;;;;6.10;1.92;;;;;;;26.31;35.03;101532.98;1351588;104;21172;-54
2022/09/03 08:36:17;;;;;;;5.20;2.02;;;;;;;26.33;34.99;101531.53;1431291;98;21113;-55
2022/09/03 08:38:45;;;;;;;4.03;1.52;;;;;;;26.37;34.60;101530.33;1406954;102;21197;-56
2022/09/03 08:41:32;;;;;;;3.25;1.90;;;;;;;26.35;34.50;101525.59;1395483;102;21148;-56
2022/09/03 08:44:28;;;;;;;2.55;1.72;;;;;;;26.34;34.07;101523.88;1378014;103;21980;-56
2022/09/03 08:47:10;;;;;;;5.50;2.35;;;;;;;26.28;34.10;101525.67;1385553;102;21215;-54
2022/09/03 08:49:51;;;;;;;2.67;1.62;;;;;;;26.22;33.96;101523.47;1385294;102;21152;-56
2022/09/03 08:52:31;;;;;;;3.83;2.25;;;;;;;26.18;33.81;101514.85;1361940;105;21180;-55
2022/09/03 08:55:28;;;;;;;4.72;2.40;;;;;;;26.13;33.96;101514.84;1328071;106;21676;-57
2022/09/03 08:58:06;;;;;;;5.22;2.08;;;;;;;26.08;33.96;101512.98;1329549;107;21169;-60
2022/09/03 09:01:00;;;;;;;4.15;1.92;;;;;;;26.05;34.12;101513.19;1268736;113;21266;-56
2022/09/03 09:03:34;;;;;;;5.97;2.37;;;;;;;26.00;33.96;101510.86;1279779;112;21224;-53
2022/09/03 09:06:21;;;;;;;5.80;1.95;;;;;;;25.95;33.78;101510.80;1283395;112;21256;-54
2022/09/03 09:09:06;;;;;;;4.37;1.85;;;;;;;25.90;33.94;101500.98;1283201;112;21173;-54
2022/09/03 09:12:18;;;;;;;4.22;2.17;;;;;;;25.86;33.92;101507.50;1266885;113;21186;-58
2022/09/03 09:15:31;;;;;;;3.30;1.77;;;;;;;25.81;33.42;101512.69;1268069;111;21368;-57
2022/09/03 09:18:28;;;;;;;6.35;2.15;;;;;;;25.76;33.37;101521.49;1267989;113;21215;-54
2022/09/03 09:21:19;;;;;;;4.42;2.10;;;;;;;25.73;33.12;101517.73;1267886;113;21196;-54
2022/09/03 09:23:48;;;;;;;2.58;1.55;;;;;;;25.70;32.91;101529.08;1267931;113;21720;-56
2022/09/03 09:26:18;;;;;;;5.35;2.58;;;;;;;25.66;33.01;101525.80;1267969;113;21236;-54
2022/09/03 09:28:49;;;;;;;4.62;2.98;;;;;;;25.65;33.46;101528.58;1265706;113;21676;-54
2022/09/03 09:31:17;;;;;;;5.03;1.92;;;;;;;25.63;33.59;101534.03;1289200;109;21250;-57
2022/09/03 09:33:45;;;;;;;5.35;1.95;;;;;;;25.64;33.25;101530.39;1290508;110;21223;-55
2022/09/03 09:36:15;;;;;;;4.28;1.80;;;;;;;25.63;33.16;101531.84;1369650;102;21231;-56
2022/09/03 09:38:42;;;;;;;6.20;1.98;;;;;;;25.63;33.00;101524.70;1383580;103;21127;-56
2022/09/03 09:41:18;;;;;;;2.62;1.77;;;;;;;25.61;32.78;101522.63;1369191;103;21181;-58
2022/09/03 09:43:47;;;;;;;7.15;2.10;;;;;;;25.58;32.71;101524.17;1349887;105;21153;-58
2022/09/03 09:46:23;;;;;;;2.60;1.70;;;;;;;25.54;32.54;101526.69;1370606;104;21251;-53
2022/09/03 09:48:56;;;;;;;2.67;1.70;;;;;;;25.55;32.81;101531.54;1349927;105;21114;-60
2022/09/03 09:51:30;;;;;;;5.97;1.92;;;;;;;25.53;33.02;101527.63;1424300;98;21139;-59
2022/09/03 09:54:05;;;;;;;2.77;1.82;;;;;;;25.53;33.04;101539.63;1470887;95;21657;-53
2022/09/03 09:56:32;;;;;;;3.05;1.75;;;;;;;25.53;33.04;101539.63;1457058;96;21211;-55
2022/09/03 09:59:09;;;;;;;2.98;1.80;;;;;;;25.55;33.05;101549.72;1494533;94;21084;-54
2022/09/03 10:01:38;;;;;;;3.72;2.30;;;;;;;25.55;33.21;101551.06;1462333;96;21096;-54
2022/09/03 10:04:30;;;;;;;7.92;1.90;;;;;;;25.58;32.99;101553.48;1471563;96;21148;-57
2022/09/03 10:07:24;;;;;;;4.92;1.92;;;;;;;25.61;32.95;101559.94;1462516;96;21065;-57
2022/09/03 10:10:01;;;;;;;5.50;2.17;;;;;;;25.65;33.17;101553.42;1464499;96;21073;-55
2022/09/03 10:12:48;;;;;;;3.67;2.02;;;;;;;25.69;32.77;101560.24;1468916;96;21154;-55
2022/09/03 10:15:45;;;;;;;5.92;1.82;;;;;;;25.73;32.55;101559.05;1471570;96;21140;-54
2022/09/03 10:18:29;;;;;;;7.33;1.62;;;;;;;25.75;32.49;101559.80;1470720;96;21086;-56
2022/09/03 10:21:16;;;;;;;2.50;1.52;;;;;;;25.80;32.93;101562.97;1453683;97;21109;-54
2022/09/03 10:24:38;;;;;;;3.33;1.37;;;;;;;25.84;32.22;101557.78;1454113;97;21124;-59
2022/09/03 10:27:11;;;;;;;4.95;1.60;;;;;;;25.80;32.17;101564.30;1444082;99;21172;-54
2022/09/03 10:29:39;;;;;;;8.00;2.02;;;;;;;25.80;31.74;101562.97;1435263;99;21662;-55
2022/09/03 10:32:26;;;;;;;2.85;2.17;;;;;;;25.79;31.33;101561.28;1428275;99;21093;-53
2022/09/03 10:35:30;;;;;;;3.90;1.98;;;;;;;25.79;32.00;101559.95;1427173;99;21239;-57
2022/09/03 10:38:24;;;;;;;5.47;1.70;;;;;;;25.80;31.96;101552.30;1438334;99;21233;-57
2022/09/03 10:41:18;;;;;;;4.62;2.05;;;;;;;25.80;31.90;101552.30;1440900;99;21130;-59
2022/09/03 10:44:10;;;;;;;4.37;1.87;;;;;;;25.80;31.83;101551.47;1403235;102;21112;-55
2022/09/03 10:47:13;;;;;;;3.05;1.60;;;;;;;25.77;31.63;101543.20;1395114;102;21128;-57
2022/09/03 10:49:55;;;;;;;3.72;2.05;;;;;;;25.75;31.84;101533.14;1388137;102;21615;-54
2022/09/03 10:52:42;;;;;;;;;;;;;;;25.72;32.35;101538.67;1387829;104;21145;-56
2022/09/03 10:55:21;;;;;;;9.38;2.00;;;;;;;25.68;32.18;101539.86;1385667;103;20134;-54
2022/09/03 10:58:16;;;;;;;2.80;1.60;;;;;;;25.65;32.50;101546.77;1378450;101;21660;-56
2022/09/03 11:00:49;;;;;;;5.62;2.25;;;;;;;25.61;32.60;101547.95;1405034;100;21785;-56
2022/09/03 11:03:54;;;;;;;7.33;2.42;;;;;;;25.58;32.09;101553.48;1372265;103;21150;-53
2022/09/03 11:06:27;;;;;;;6.80;2.50;;;;;;;25.54;32.36;101552.00;1348942;105;21139;-54
2022/09/03 11:09:12;;;;;;;2.42;1.82;;;;;;;25.54;32.75;101566.66;1346590;105;21674;-53
2022/09/03 11:11:50;;;;;;;3.72;1.80;;;;;;;25.53;32.69;101559.61;1337582;106;21649;-56
2022/09/03 11:14:25;;;;;;;5.37;2.22;;;;;;;25.53;32.57;101552.12;1335892;106;21201;-56
2022/09/03 11:16:57;;;;;;;3.37;2.05;;;;;;;25.51;32.09;101553.53;1323072;107;21219;-56
2022/09/03 11:19:49;;;;;;;2.98;1.80;;;;;;;25.49;32.15;101557.30;1335549;106;21183;-55
2022/09/03 11:22:17;;;;;;;5.50;2.22;;;;;;;25.47;31.75;101563.22;1395631;102;21167;-54
2022/09/03 11:24:47;;;;;;;4.55;2.00;;;;;;;25.44;31.40;101560.28;1401325;102;21137;-58
2022/09/03 11:27:29;;;;;;;4.45;2.27;;;;;;;25.42;31.97;101557.34;1401597;102;21714;-55
2022/09/03 11:30:06;;;;;;;5.60;2.10;;;;;;;25.40;32.15;101562.77;1403010;100;21599;-55
2022/09/03 11:32:55;;;;;;;4.47;2.17;;;;;;;25.39;32.47;101564.20;1414331;100;21147;-55
2022/09/03 11:35:30;;;;;;;6.85;2.17;;;;;;;25.36;32.42;101561.27;1418737;100;21645;-56
2022/09/03 11:38:20;;;;;;;4.58;2.47;;;;;;;25.34;32.17;101560.53;1440856;98;21150;-57
2022/09/03 11:41:13;;;;;;;5.92;2.10;;;;;;;25.34;32.43;101553.88;1440807;98;21197;-54
2022/09/03 11:43:41;;;;;;;2.83;1.80;;;;;;;25.32;32.44;101553.13;1441108;98;21086;-56
2022/09/03 11:46:25;;;;;;;2.72;1.65;;;;;;;25.32;32.08;101550.47;1441175;98;21087;-53
2022/09/03 11:49:05;;;;;;;4.30;2.27;;;;;;;25.30;32.21;101555.05;1441005;98;21130;-54
2022/09/03 11:51:36;;;;;;;2.83;2.00;;;;;;;25.30;32.13;101557.72;1379099;103;21104;-56
2022/09/03 11:54:06;;;;;;;6.47;2.05;;;;;;;25.28;31.66;101559.63;1394414;100;21106;-55
2022/09/03 11:56:34;;;;;;;3.90;2.27;;;;;;;25.25;32.21;101562.50;1443821;98;21149;-55
2022/09/03 11:59:15;;;;;;;5.75;2.15;;;;;;;25.25;32.21;101562.50;1402319;100;21263;-53
2022/09/03 12:02:05;;;;;;;6.35;2.22;;;;;;;25.25;32.22;101562.50;1429841;100;21666;-55